Terminal Aerodrome Forecast
Issued by NWS Grand Junction, CO

Home | Current Version | Previous Version | Text Only | Print | Product List | Glossary On
Versions: 1 2 3 4 5 6 7 8 9 10 11 12 13 14 15 16
000
FTUS45 KGJT 200327 AAB
TAFGJT
TAF AMD
KGJT 200327Z 2003/2024 31005KT P6SM -SHRA FEW015 BKN025 OVC040
     FM200500 01004KT 5SM BR VCSH BKN025 OVC040
     FM200800 04004KT 4SM BR BKN025 OVC050
     FM201500 12005KT P6SM VCFG FEW012 BKN100
     FM201700 15004KT P6SM SCT200
     FM202200 24005KT P6SM SCT250=

USA.gov is the U.S. government's official web portal to all federal, state and local government web resources and services.